createdAt,value
2023-01-17T00:01:34.392Z,64.11
2023-01-17T00:04:20.119Z,64.66
2023-01-17T00:07:05.717Z,64.49
2023-01-17T00:09:50.772Z,64.50
2023-01-17T00:12:19.277Z,64.17
2023-01-17T00:14:48.542Z,63.94
2023-01-17T00:17:16.445Z,64.08
2023-01-17T00:20:02.398Z,64.11
2023-01-17T00:22:49.560Z,64.48
2023-01-17T00:25:37.148Z,64.30
2023-01-17T00:28:05.307Z,63.65
2023-01-17T00:30:33.899Z,64.18
2023-01-17T00:33:01.132Z,63.85
2023-01-17T00:35:29.729Z,64.55
2023-01-17T00:38:05.065Z,64.15
2023-01-17T00:40:32.031Z,63.73
2023-01-17T00:43:19.678Z,64.48
2023-01-17T00:46:06.428Z,64.40
2023-01-17T00:48:52.844Z,63.97
2023-01-17T00:51:38.653Z,64.25
2023-01-17T00:54:24.478Z,64.61
2023-01-17T00:57:10.306Z,64.15
2023-01-17T00:59:56.318Z,63.83
2023-01-17T01:02:44.124Z,63.70
2023-01-17T01:05:30.308Z,64.36
2023-01-17T01:08:15.672Z,63.88
2023-01-17T01:11:01.790Z,63.79
2023-01-17T01:13:49.601Z,64.63
2023-01-17T01:16:35.775Z,64.41
2023-01-17T01:19:24.069Z,64.74
2023-01-17T01:22:09.775Z,64.29
2023-01-17T01:24:54.823Z,64.90
2023-01-17T01:27:40.402Z,65.24
2023-01-17T01:30:27.120Z,64.92
2023-01-17T01:33:12.674Z,64.66
2023-01-17T01:35:43.124Z,64.88
2023-01-17T01:38:11.065Z,64.08
2023-01-17T01:40:47.620Z,64.83
2023-01-17T01:43:19.392Z,64.12
2023-01-17T01:45:51.873Z,64.18
2023-01-17T01:48:32.816Z,63.67
2023-01-17T01:51:03.773Z,64.26
2023-01-17T01:53:34.237Z,64.61
2023-01-17T01:56:03.061Z,64.74
2023-01-17T01:58:37.509Z,64.95
2023-01-17T02:01:06.568Z,65.32
2023-01-17T02:03:35.699Z,64.92
2023-01-17T02:06:16.391Z,64.80
2023-01-17T02:08:44.793Z,64.26
2023-01-17T02:11:13.331Z,65.05
2023-01-17T02:13:42.472Z,64.74
2023-01-17T02:16:21.968Z,64.55
2023-01-17T02:18:58.095Z,65.15
2023-01-17T02:21:29.677Z,64.62
2023-01-17T02:24:40.236Z,64.79
2023-01-17T02:27:17.231Z,64.73
2023-01-17T02:30:14.874Z,64.90
2023-01-17T02:33:15.166Z,64.38
2023-01-17T02:35:54.716Z,64.93
2023-01-17T02:38:33.281Z,64.91
2023-01-17T02:41:06.131Z,65.03
2023-01-17T02:43:34.771Z,64.29
2023-01-17T02:46:02.810Z,64.72
2023-01-17T02:48:33.316Z,64.70
2023-01-17T02:51:22.150Z,64.47
2023-01-17T02:54:05.366Z,64.34
2023-01-17T02:56:49.253Z,63.75
2023-01-17T02:59:37.088Z,64.71
2023-01-17T03:02:16.898Z,64.74
2023-01-17T03:04:51.612Z,63.88
2023-01-17T03:07:25.170Z,64.04
2023-01-17T03:09:59.754Z,64.56
2023-01-17T03:12:29.958Z,64.44
2023-01-17T03:14:58.062Z,64.15
2023-01-17T03:17:30.948Z,64.00
2023-01-17T03:19:59.224Z,64.66
2023-01-17T03:22:28.529Z,64.28
2023-01-17T03:24:56.911Z,64.36
2023-01-17T03:27:24.830Z,64.36
2023-01-17T03:29:52.713Z,63.96
2023-01-17T03:32:21.067Z,64.50
2023-01-17T03:34:49.020Z,64.04
2023-01-17T03:37:16.824Z,64.36
2023-01-17T03:39:46.657Z,64.24
2023-01-17T03:42:14.551Z,64.56
2023-01-17T03:44:42.420Z,64.64
2023-01-17T03:47:12.220Z,64.61
2023-01-17T03:49:40.501Z,64.50
2023-01-17T03:52:09.010Z,64.07
2023-01-17T03:54:37.140Z,64.33
2023-01-17T03:57:06.636Z,64.49
2023-01-17T03:59:34.469Z,64.69
2023-01-17T04:02:03.208Z,64.90
2023-01-17T04:04:31.099Z,64.80
2023-01-17T04:06:59.043Z,64.58
2023-01-17T04:09:27.381Z,64.93
2023-01-17T04:11:56.630Z,64.55
2023-01-17T04:14:25.909Z,64.59
2023-01-17T04:16:54.475Z,64.22
2023-01-17T04:19:22.466Z,64.64
2023-01-17T04:21:50.227Z,64.46
2023-01-17T04:24:18.411Z,64.50
2023-01-17T04:26:46.313Z,64.49
2023-01-17T04:29:14.123Z,64.32
2023-01-17T04:31:44.093Z,64.47
2023-01-17T04:34:11.928Z,64.20
2023-01-17T04:36:39.885Z,64.13
2023-01-17T04:39:08.724Z,63.98
2023-01-17T04:41:36.843Z,64.56
2023-01-17T04:44:05.200Z,64.03
2023-01-17T04:46:33.597Z,64.16
2023-01-17T04:49:02.877Z,64.04
2023-01-17T04:51:30.764Z,64.05
2023-01-17T04:53:59.249Z,64.36
2023-01-17T04:56:27.074Z,63.79
2023-01-17T04:58:54.963Z,64.01
2023-01-17T05:01:23.200Z,63.94
2023-01-17T05:03:51.134Z,63.66
2023-01-17T05:06:20.355Z,64.16
2023-01-17T05:08:48.722Z,63.63
2023-01-17T05:11:16.626Z,63.70
2023-01-17T05:13:44.624Z,64.44
2023-01-17T05:16:13.252Z,63.26
2023-01-17T05:18:41.058Z,63.55
2023-01-17T05:21:08.839Z,64.04
2023-01-17T05:23:38.354Z,63.52
2023-01-17T05:26:06.406Z,63.36
2023-01-17T05:28:34.247Z,63.54
2023-01-17T05:31:02.572Z,63.77
2023-01-17T05:33:30.442Z,64.07
2023-01-17T05:35:58.414Z,63.67
2023-01-17T05:38:26.838Z,64.00
2023-01-17T05:40:56.194Z,63.98
2023-01-17T05:43:24.027Z,63.48
2023-01-17T05:45:52.496Z,63.31
2023-01-17T05:48:20.622Z,62.91
2023-01-17T05:50:48.505Z,63.20
2023-01-17T05:53:18.331Z,63.08
2023-01-17T05:55:47.739Z,63.42
2023-01-17T05:58:20.146Z,63.35
2023-01-17T06:00:48.517Z,63.46
2023-01-17T06:03:16.833Z,62.65
2023-01-17T06:05:45.456Z,62.33
2023-01-17T06:08:13.272Z,62.41
2023-01-17T06:10:41.219Z,62.51
2023-01-17T06:13:11.341Z,62.33
2023-01-17T06:15:41.092Z,62.90
2023-01-17T06:18:11.247Z,62.90
2023-01-17T06:20:39.555Z,62.76
2023-01-17T06:23:11.354Z,62.24
2023-01-17T06:25:40.121Z,62.14
2023-01-17T06:28:08.662Z,62.54
2023-01-17T06:30:37.676Z,62.81
2023-01-17T06:33:07.175Z,62.03
2023-01-17T06:35:35.259Z,61.86
2023-01-17T06:38:03.576Z,62.44
2023-01-17T06:40:31.795Z,62.47
2023-01-17T06:43:04.238Z,62.57
2023-01-17T06:45:33.949Z,62.03
2023-01-17T06:48:03.934Z,62.42
2023-01-17T06:50:34.189Z,62.35
2023-01-17T06:53:04.243Z,62.66
2023-01-17T06:55:35.044Z,61.85
2023-01-17T06:58:03.646Z,62.35
2023-01-17T07:00:35.381Z,62.36
2023-01-17T07:03:03.555Z,61.90
2023-01-17T07:05:31.353Z,62.80
2023-01-17T07:08:00.630Z,62.62
2023-01-17T07:10:28.549Z,62.56
2023-01-17T07:13:00.907Z,62.40
2023-01-17T07:15:28.965Z,62.58
2023-01-17T07:17:56.755Z,63.08
2023-01-17T07:20:24.721Z,62.43
2023-01-17T07:22:52.657Z,62.13
2023-01-17T07:25:22.076Z,62.18
2023-01-17T07:27:50.404Z,62.15
2023-01-17T07:30:19.083Z,62.37
2023-01-17T07:32:52.627Z,62.06
2023-01-17T07:35:20.868Z,61.77
2023-01-17T07:37:49.330Z,62.06
2023-01-17T07:40:19.017Z,62.32
2023-01-17T07:42:48.488Z,61.89
2023-01-17T07:45:17.619Z,61.74
2023-01-17T07:47:45.788Z,62.29
2023-01-17T07:50:14.174Z,61.78
2023-01-17T07:52:42.354Z,62.27
2023-01-17T07:55:11.516Z,61.32
2023-01-17T07:57:39.498Z,61.76
2023-01-17T08:00:11.058Z,61.46
2023-01-17T08:02:39.462Z,61.54
2023-01-17T08:05:07.873Z,61.49
2023-01-17T08:07:35.850Z,61.65
2023-01-17T08:10:04.281Z,61.36
2023-01-17T08:12:32.114Z,61.31
2023-01-17T08:14:59.998Z,61.23
2023-01-17T08:17:29.900Z,61.51
2023-01-17T08:19:58.211Z,61.73
2023-01-17T08:22:25.952Z,61.61
2023-01-17T08:24:54.202Z,62.26
2023-01-17T08:27:22.056Z,62.13
2023-01-17T08:29:50.764Z,61.86
2023-01-17T08:32:20.534Z,62.17
2023-01-17T08:34:49.871Z,62.00
2023-01-17T08:37:17.803Z,61.52
2023-01-17T08:39:46.086Z,61.59
2023-01-17T08:42:13.885Z,61.81
2023-01-17T08:44:41.880Z,62.33
2023-01-17T08:47:11.542Z,61.86
2023-01-17T08:49:39.592Z,61.96
2023-01-17T08:52:09.216Z,62.88
2023-01-17T08:54:37.436Z,62.38
2023-01-17T08:57:05.521Z,62.19
2023-01-17T08:59:33.385Z,62.03
2023-01-17T09:02:07.329Z,62.12
2023-01-17T09:04:35.188Z,61.67
2023-01-17T09:07:03.059Z,62.15
2023-01-17T09:09:32.494Z,61.98
2023-01-17T09:12:00.178Z,62.07
2023-01-17T09:14:28.188Z,61.47
2023-01-17T09:16:56.564Z,61.76
2023-01-17T09:19:24.276Z,61.51
2023-01-17T09:21:52.263Z,61.91
2023-01-17T09:24:20.606Z,61.86
2023-01-17T09:26:49.753Z,61.84
2023-01-17T09:29:18.864Z,62.40
2023-01-17T09:31:47.862Z,62.13
2023-01-17T09:34:15.672Z,62.23
2023-01-17T09:36:43.782Z,61.37
2023-01-17T09:39:15.236Z,62.19
2023-01-17T09:41:53.266Z,61.59
2023-01-17T09:44:27.027Z,61.83
2023-01-17T09:46:58.108Z,61.67
2023-01-17T09:49:35.834Z,61.75
2023-01-17T09:52:04.577Z,61.71
2023-01-17T09:54:36.607Z,61.71
2023-01-17T09:57:14.595Z,60.93
2023-01-17T10:00:02.609Z,61.81
2023-01-17T10:02:55.511Z,61.83
2023-01-17T10:05:41.886Z,61.39
2023-01-17T10:08:22.952Z,61.28
2023-01-17T10:11:01.042Z,60.99
2023-01-17T10:13:42.520Z,61.57
2023-01-17T10:16:30.488Z,61.29
2023-01-17T10:19:33.495Z,61.46
2023-01-17T10:22:32.334Z,61.07
2023-01-17T10:25:16.195Z,60.41
2023-01-17T10:27:55.746Z,60.09
2023-01-17T10:30:31.285Z,60.29
2023-01-17T10:33:06.084Z,60.47
2023-01-17T10:35:39.431Z,59.37
2023-01-17T10:38:13.256Z,60.79
2023-01-17T10:40:45.871Z,61.25
2023-01-17T10:43:20.756Z,60.65
2023-01-17T10:45:54.282Z,60.67
2023-01-17T10:48:35.551Z,60.64
2023-01-17T10:51:15.002Z,60.37
2023-01-17T10:54:00.555Z,60.20
2023-01-17T10:56:31.013Z,59.72
2023-01-17T10:59:18.700Z,59.66
2023-01-17T11:01:50.376Z,59.16
2023-01-17T11:04:21.995Z,59.40
2023-01-17T11:07:12.087Z,58.84
2023-01-17T11:09:41.232Z,58.66
2023-01-17T11:12:20.477Z,58.08
2023-01-17T11:15:01.684Z,58.41
2023-01-17T11:17:32.348Z,57.28
2023-01-17T11:20:17.608Z,57.60
2023-01-17T11:22:49.342Z,57.32
2023-01-17T11:25:23.845Z,57.28
2023-01-17T11:28:02.842Z,56.93
2023-01-17T11:30:30.891Z,56.64
2023-01-17T11:33:03.974Z,56.70
2023-01-17T11:35:34.351Z,55.04
2023-01-17T11:38:07.151Z,52.87
2023-01-17T11:40:39.298Z,52.87
2023-01-17T11:43:19.949Z,54.75
2023-01-17T11:46:00.675Z,53.27
2023-01-17T11:48:35.950Z,54.67
2023-01-17T11:51:04.907Z,55.95
2023-01-17T11:53:36.212Z,53.96
2023-01-17T11:56:07.329Z,54.29
2023-01-17T11:58:37.114Z,53.68
2023-01-17T12:01:27.862Z,55.04
2023-01-17T12:04:18.167Z,54.53
2023-01-17T12:06:58.241Z,52.25
2023-01-17T12:09:32.280Z,52.31
2023-01-17T12:12:28.740Z,52.62
2023-01-17T12:15:08.995Z,53.91
2023-01-17T12:17:54.495Z,49.93
2023-01-17T12:20:32.901Z,51.71
2023-01-17T12:23:14.419Z,52.20
2023-01-17T12:25:57.600Z,49.46
2023-01-17T12:29:00.923Z,51.28
2023-01-17T12:31:35.203Z,50.72
2023-01-17T12:34:15.128Z,51.16
2023-01-17T12:36:49.969Z,51.20
2023-01-17T12:39:23.020Z,49.72
2023-01-17T12:42:04.908Z,52.19
2023-01-17T12:44:46.627Z,51.52
2023-01-17T12:47:16.917Z,51.00
2023-01-17T12:49:59.425Z,51.60
2023-01-17T12:52:39.735Z,51.43
2023-01-17T12:55:17.713Z,50.79
2023-01-17T12:57:53.031Z,49.82
2023-01-17T13:00:23.625Z,53.30
2023-01-17T13:02:58.130Z,49.84
2023-01-17T13:05:31.264Z,48.89
2023-01-17T13:08:06.393Z,48.22
2023-01-17T13:10:37.842Z,48.88
2023-01-17T13:13:20.142Z,49.98
2023-01-17T13:15:50.893Z,50.19
2023-01-17T13:18:23.125Z,50.46
2023-01-17T13:21:06.674Z,49.86
2023-01-17T13:23:59.034Z,51.15
2023-01-17T13:26:39.762Z,50.55
2023-01-17T13:29:15.855Z,49.80
2023-01-17T13:31:49.407Z,49.03
2023-01-17T13:34:50.931Z,48.70
2023-01-17T13:37:42.435Z,50.46
2023-01-17T13:40:27.409Z,50.66
2023-01-17T13:42:58.873Z,49.76
2023-01-17T13:45:29.077Z,50.25
2023-01-17T13:48:25.662Z,49.38
2023-01-17T13:50:55.519Z,48.14
2023-01-17T13:53:59.668Z,46.65
2023-01-17T13:56:40.379Z,46.69
2023-01-17T13:59:30.892Z,49.27
2023-01-17T14:01:58.648Z,49.10
2023-01-17T14:04:47.501Z,48.90
2023-01-17T14:07:26.624Z,47.01
2023-01-17T14:09:55.286Z,48.67
2023-01-17T14:12:32.824Z,46.06
2023-01-17T14:15:05.731Z,49.07
2023-01-17T14:17:45.305Z,49.19
2023-01-17T14:20:50.112Z,48.29
2023-01-17T14:23:34.002Z,47.79
2023-01-17T14:26:19.833Z,48.72
2023-01-17T14:28:49.243Z,48.17
2023-01-17T14:31:19.236Z,48.68
2023-01-17T14:33:47.615Z,49.18
2023-01-17T14:36:24.868Z,50.08
2023-01-17T14:38:53.243Z,49.87
2023-01-17T14:41:23.372Z,49.98
2023-01-17T14:43:53.830Z,49.83
2023-01-17T14:46:26.418Z,50.66
2023-01-17T14:49:01.836Z,49.92
2023-01-17T14:51:30.134Z,50.19
2023-01-17T14:53:59.592Z,50.71
2023-01-17T14:56:30.198Z,50.80
2023-01-17T14:59:17.000Z,49.89
2023-01-17T15:01:58.173Z,48.61
2023-01-17T15:04:39.313Z,49.28
2023-01-17T15:07:08.915Z,49.52
2023-01-17T15:09:38.946Z,49.72
2023-01-17T15:12:10.848Z,50.82
2023-01-17T15:14:43.976Z,50.00
2023-01-17T15:17:17.965Z,50.36
2023-01-17T15:19:49.008Z,49.72
2023-01-17T15:22:18.931Z,50.03
2023-01-17T15:24:48.119Z,49.97
2023-01-17T15:27:17.377Z,49.90
2023-01-17T15:29:48.102Z,49.78
2023-01-17T15:32:21.640Z,49.39
2023-01-17T15:34:51.383Z,49.98
2023-01-17T15:37:26.935Z,49.56
2023-01-17T15:40:04.063Z,49.66
2023-01-17T15:42:33.345Z,49.61
2023-01-17T15:45:05.521Z,50.64
2023-01-17T15:47:35.484Z,51.46
2023-01-17T15:50:25.673Z,52.17
2023-01-17T15:52:55.832Z,52.16
2023-01-17T15:55:27.558Z,52.46
2023-01-17T15:57:55.336Z,52.03
2023-01-17T16:03:25.109Z,52.76
2023-01-17T16:05:56.946Z,52.78
2023-01-17T16:08:40.324Z,52.70
2023-01-17T16:11:11.941Z,53.11
2023-01-17T16:13:42.297Z,52.52
2023-01-17T16:16:17.923Z,53.83
2023-01-17T16:18:47.538Z,53.37
2023-01-17T16:21:25.023Z,53.47
2023-01-17T16:23:54.117Z,53.82
2023-01-17T16:26:22.067Z,53.74
2023-01-17T16:28:50.749Z,54.34
2023-01-17T16:31:20.574Z,54.39
2023-01-17T16:33:50.655Z,53.63
2023-01-17T16:36:20.853Z,54.36
2023-01-17T16:38:50.873Z,54.24
2023-01-17T16:41:19.430Z,54.38
2023-01-17T16:43:48.456Z,54.89
2023-01-17T16:46:16.904Z,55.08
2023-01-17T16:48:46.277Z,55.34
2023-01-17T16:51:14.103Z,55.46
2023-01-17T16:53:42.055Z,54.96
2023-01-17T16:56:13.810Z,55.21
2023-01-17T16:58:42.380Z,55.05
2023-01-17T17:01:11.412Z,54.46
2023-01-17T17:03:40.155Z,54.96
2023-01-17T17:06:10.041Z,55.28
2023-01-17T17:08:39.801Z,54.49
2023-01-17T17:11:13.890Z,54.92
2023-01-17T17:13:42.881Z,55.32
2023-01-17T17:16:16.074Z,55.10
2023-01-17T17:18:45.401Z,55.00
2023-01-17T17:21:14.784Z,55.83
2023-01-17T17:23:42.742Z,55.03
2023-01-17T17:26:11.466Z,55.36
2023-01-17T17:28:39.429Z,55.73
2023-01-17T17:31:10.486Z,55.73
2023-01-17T17:33:39.335Z,55.75
2023-01-17T17:36:10.299Z,56.00
2023-01-17T17:38:51.046Z,55.93
2023-01-17T17:41:20.312Z,56.21
2023-01-17T17:43:48.460Z,56.03
2023-01-17T17:46:16.709Z,56.34
2023-01-17T17:48:44.831Z,56.13
2023-01-17T17:51:24.415Z,56.03
2023-01-17T17:53:54.755Z,55.52
2023-01-17T17:56:23.490Z,55.50
2023-01-17T17:58:52.361Z,55.92
2023-01-17T18:01:22.993Z,56.18
2023-01-17T18:03:51.385Z,56.03
2023-01-17T18:06:20.049Z,55.60
2023-01-17T18:08:48.301Z,56.22
2023-01-17T18:11:20.031Z,56.38
2023-01-17T18:13:50.500Z,55.51
2023-01-17T18:16:21.276Z,56.04
2023-01-17T18:18:51.680Z,55.84
2023-01-17T18:21:24.041Z,56.54
2023-01-17T18:23:54.508Z,56.33
2023-01-17T18:26:26.185Z,57.04
2023-01-17T18:28:55.365Z,56.31
2023-01-17T18:31:25.196Z,56.27
2023-01-17T18:33:54.281Z,56.29
2023-01-17T18:36:23.350Z,56.69
2023-01-17T18:38:51.825Z,56.35
2023-01-17T18:41:22.538Z,56.94
2023-01-17T18:43:52.754Z,56.84
2023-01-17T18:46:21.969Z,56.50
2023-01-17T18:48:49.959Z,56.81
2023-01-17T18:51:20.629Z,57.22
2023-01-17T18:53:49.946Z,57.48
2023-01-17T18:56:20.607Z,56.81
2023-01-17T18:58:50.463Z,57.04
2023-01-17T19:01:22.334Z,56.57
2023-01-17T19:03:53.029Z,56.92
2023-01-17T19:06:24.225Z,57.19
2023-01-17T19:08:53.186Z,56.65
2023-01-17T19:11:22.591Z,56.99
2023-01-17T19:13:51.227Z,56.64
2023-01-17T19:16:24.605Z,57.00
2023-01-17T19:18:53.534Z,57.71
2023-01-17T19:21:24.488Z,57.09
2023-01-17T19:23:53.117Z,56.84
2023-01-17T19:26:22.911Z,57.35
2023-01-17T19:28:54.718Z,57.67
2023-01-17T19:31:26.258Z,57.54
2023-01-17T19:33:57.660Z,57.26
2023-01-17T19:36:27.986Z,57.00
2023-01-17T19:39:04.502Z,57.64
2023-01-17T19:41:35.534Z,57.64
2023-01-17T19:44:08.263Z,57.29
2023-01-17T19:46:38.609Z,57.29
2023-01-17T19:49:08.783Z,57.76
2023-01-17T19:51:37.483Z,57.41
2023-01-17T19:54:07.058Z,57.43
2023-01-17T19:56:35.488Z,57.29
2023-01-17T19:59:04.153Z,58.04
2023-01-17T20:01:35.047Z,57.43
2023-01-17T20:04:09.903Z,57.31
2023-01-17T20:06:38.409Z,57.29
2023-01-17T20:09:07.213Z,57.52
2023-01-17T20:11:35.536Z,57.74
2023-01-17T20:14:06.134Z,57.63
2023-01-17T20:16:37.119Z,57.95
2023-01-17T20:19:07.587Z,57.29
2023-01-17T20:21:35.518Z,57.72
2023-01-17T20:24:04.429Z,57.81
2023-01-17T20:26:35.979Z,58.28
2023-01-17T20:29:06.910Z,57.68
2023-01-17T20:31:38.671Z,58.03
2023-01-17T20:34:10.030Z,57.56
2023-01-17T20:36:39.133Z,57.64
2023-01-17T20:39:11.035Z,57.65
2023-01-17T20:41:42.345Z,58.02
2023-01-17T20:44:16.918Z,58.42
2023-01-17T20:50:28.411Z,58.31
2023-01-17T20:52:56.871Z,58.40
2023-01-17T20:55:29.140Z,58.11
2023-01-17T20:57:59.740Z,58.27
2023-01-17T21:00:27.684Z,58.04
2023-01-17T21:02:57.232Z,58.45
2023-01-17T21:05:25.662Z,58.65
2023-01-17T21:07:55.096Z,58.15
2023-01-17T21:10:23.111Z,58.63
2023-01-17T21:12:51.651Z,58.30
2023-01-17T21:15:19.991Z,58.31
2023-01-17T21:17:47.864Z,58.24
2023-01-17T21:20:17.670Z,58.29
2023-01-17T21:22:45.675Z,58.58
2023-01-17T21:25:22.958Z,58.53
2023-01-17T21:27:50.997Z,58.32
2023-01-17T21:30:19.056Z,58.18
2023-01-17T22:32:56.551Z,59.03
2023-01-17T22:35:24.947Z,59.32
2023-01-17T22:43:58.652Z,59.15
2023-01-17T22:46:28.886Z,59.12
2023-01-17T22:48:58.983Z,58.94
2023-01-17T22:51:29.461Z,59.22
2023-01-17T22:54:00.632Z,59.36
2023-01-17T22:56:31.831Z,59.14
2023-01-17T22:59:01.144Z,58.72
2023-01-17T23:01:31.693Z,59.00
2023-01-17T23:04:02.845Z,58.65
2023-01-17T23:06:32.842Z,59.21
2023-01-17T23:09:03.365Z,59.48
2023-01-17T23:11:42.917Z,58.88
2023-01-17T23:14:14.817Z,59.40
2023-01-17T23:17:02.029Z,59.13
2023-01-17T23:19:34.241Z,59.28
2023-01-17T23:22:20.188Z,59.14
2023-01-17T23:24:53.615Z,59.62
2023-01-17T23:27:41.313Z,59.72
2023-01-17T23:30:12.349Z,59.19
2023-01-17T23:32:41.149Z,59.34
2023-01-17T23:35:15.220Z,59.17
2023-01-17T23:38:00.640Z,59.73
2023-01-17T23:40:29.315Z,59.96
2023-01-17T23:43:14.691Z,59.76
2023-01-17T23:45:44.192Z,59.75
2023-01-17T23:48:12.889Z,59.82
2023-01-17T23:50:45.018Z,59.87
2023-01-17T23:53:16.150Z,59.20
2023-01-17T23:55:47.384Z,59.54
2023-01-17T23:58:15.887Z,59.67
